sensor_id;sensor_type;location;lat;lon;timestamp;P1;durP1;ratioP1;P2;durP2;ratioP2
69789;SDS011;57064;52.046;4.800;2023-07-22T00:01:02;52.15;;;24.05;;
69789;SDS011;57064;52.046;4.800;2023-07-22T00:03:28;52.50;;;24.70;;
69789;SDS011;57064;52.046;4.800;2023-07-22T00:08:36;53.38;;;25.10;;
69789;SDS011;57064;52.046;4.800;2023-07-22T00:11:03;51.88;;;24.30;;
69789;SDS011;57064;52.046;4.800;2023-07-22T00:13:31;49.08;;;22.73;;
69789;SDS011;57064;52.046;4.800;2023-07-22T00:15:58;46.38;;;21.63;;
69789;SDS011;57064;52.046;4.800;2023-07-22T00:18:25;47.72;;;22.00;;
69789;SDS011;57064;52.046;4.800;2023-07-22T00:20:54;50.53;;;24.27;;
69789;SDS011;57064;52.046;4.800;2023-07-22T00:23:20;54.47;;;24.52;;
69789;SDS011;57064;52.046;4.800;2023-07-22T00:25:46;48.92;;;22.70;;
69789;SDS011;57064;52.046;4.800;2023-07-22T00:28:13;51.22;;;23.48;;
69789;SDS011;57064;52.046;4.800;2023-07-22T00:30:39;50.47;;;23.17;;
69789;SDS011;57064;52.046;4.800;2023-07-22T00:33:05;51.15;;;23.33;;
69789;SDS011;57064;52.046;4.800;2023-07-22T00:35:31;48.75;;;22.50;;
69789;SDS011;57064;52.046;4.800;2023-07-22T00:37:58;50.15;;;23.40;;
69789;SDS011;57064;52.046;4.800;2023-07-22T00:40:24;52.78;;;23.50;;
69789;SDS011;57064;52.046;4.800;2023-07-22T00:42:51;54.45;;;23.25;;
69789;SDS011;57064;52.046;4.800;2023-07-22T00:45:17;47.38;;;22.80;;
69789;SDS011;57064;52.046;4.800;2023-07-22T00:47:43;52.83;;;22.38;;
69789;SDS011;57064;52.046;4.800;2023-07-22T00:50:10;48.08;;;22.42;;
69789;SDS011;57064;52.046;4.800;2023-07-22T00:52:37;51.25;;;23.15;;
69789;SDS011;57064;52.046;4.800;2023-07-22T00:55:04;50.10;;;23.17;;
69789;SDS011;57064;52.046;4.800;2023-07-22T00:57:30;53.20;;;22.67;;
69789;SDS011;57064;52.046;4.800;2023-07-22T00:59:57;53.28;;;24.30;;
69789;SDS011;57064;52.046;4.800;2023-07-22T01:02:23;55.17;;;22.75;;
69789;SDS011;57064;52.046;4.800;2023-07-22T01:04:50;52.25;;;21.45;;
69789;SDS011;57064;52.046;4.800;2023-07-22T01:07:18;52.03;;;22.52;;
69789;SDS011;57064;52.046;4.800;2023-07-22T01:09:45;50.75;;;21.30;;
69789;SDS011;57064;52.046;4.800;2023-07-22T01:12:11;53.90;;;22.65;;
69789;SDS011;57064;52.046;4.800;2023-07-22T01:14:39;48.00;;;22.60;;
69789;SDS011;57064;52.046;4.800;2023-07-22T01:17:07;50.92;;;21.42;;
69789;SDS011;57064;52.046;4.800;2023-07-22T01:19:35;51.50;;;22.55;;
69789;SDS011;57064;52.046;4.800;2023-07-22T01:22:04;56.08;;;22.88;;
69789;SDS011;57064;52.046;4.800;2023-07-22T01:24:34;50.60;;;21.40;;
69789;SDS011;57064;52.046;4.800;2023-07-22T01:27:01;55.33;;;21.80;;
69789;SDS011;57064;52.046;4.800;2023-07-22T01:29:28;49.15;;;20.95;;
69789;SDS011;57064;52.046;4.800;2023-07-22T01:31:55;49.72;;;21.33;;
69789;SDS011;57064;52.046;4.800;2023-07-22T01:34:21;51.63;;;20.50;;
69789;SDS011;57064;52.046;4.800;2023-07-22T01:36:49;50.13;;;20.83;;
69789;SDS011;57064;52.046;4.800;2023-07-22T01:39:16;45.20;;;20.08;;
69789;SDS011;57064;52.046;4.800;2023-07-22T01:41:43;47.55;;;18.88;;
69789;SDS011;57064;52.046;4.800;2023-07-22T01:44:10;48.08;;;18.45;;
69789;SDS011;57064;52.046;4.800;2023-07-22T01:46:36;52.50;;;19.30;;
69789;SDS011;57064;52.046;4.800;2023-07-22T01:49:06;46.92;;;18.98;;
69789;SDS011;57064;52.046;4.800;2023-07-22T01:51:34;46.03;;;18.40;;
69789;SDS011;57064;52.046;4.800;2023-07-22T01:54:03;44.75;;;18.92;;
69789;SDS011;57064;52.046;4.800;2023-07-22T01:56:30;47.20;;;17.88;;
69789;SDS011;57064;52.046;4.800;2023-07-22T01:58:56;40.65;;;17.17;;
69789;SDS011;57064;52.046;4.800;2023-07-22T02:01:22;46.25;;;17.35;;
69789;SDS011;57064;52.046;4.800;2023-07-22T02:03:48;37.30;;;16.80;;
69789;SDS011;57064;52.046;4.800;2023-07-22T02:06:14;44.00;;;16.95;;
69789;SDS011;57064;52.046;4.800;2023-07-22T02:08:40;41.95;;;17.20;;
69789;SDS011;57064;52.046;4.800;2023-07-22T02:11:07;42.95;;;17.50;;
69789;SDS011;57064;52.046;4.800;2023-07-22T02:13:34;37.50;;;17.17;;
69789;SDS011;57064;52.046;4.800;2023-07-22T02:16:00;40.03;;;16.58;;
69789;SDS011;57064;52.046;4.800;2023-07-22T02:18:28;44.42;;;17.65;;
69789;SDS011;57064;52.046;4.800;2023-07-22T02:20:54;40.10;;;19.83;;
69789;SDS011;57064;52.046;4.800;2023-07-22T02:23:22;39.20;;;16.10;;
69789;SDS011;57064;52.046;4.800;2023-07-22T02:25:51;38.13;;;14.60;;
69789;SDS011;57064;52.046;4.800;2023-07-22T02:28:18;35.58;;;14.90;;
69789;SDS011;57064;52.046;4.800;2023-07-22T02:30:47;38.85;;;14.60;;
69789;SDS011;57064;52.046;4.800;2023-07-22T02:33:13;30.92;;;14.30;;
69789;SDS011;57064;52.046;4.800;2023-07-22T02:35:40;31.10;;;13.00;;
69789;SDS011;57064;52.046;4.800;2023-07-22T02:38:07;31.83;;;13.45;;
69789;SDS011;57064;52.046;4.800;2023-07-22T02:40:36;31.83;;;14.05;;
69789;SDS011;57064;52.046;4.800;2023-07-22T02:43:02;30.55;;;12.82;;
69789;SDS011;57064;52.046;4.800;2023-07-22T02:45:29;29.70;;;12.57;;
69789;SDS011;57064;52.046;4.800;2023-07-22T02:47:55;27.27;;;12.20;;
69789;SDS011;57064;52.046;4.800;2023-07-22T02:50:21;28.80;;;12.55;;
69789;SDS011;57064;52.046;4.800;2023-07-22T02:52:47;26.65;;;12.68;;
69789;SDS011;57064;52.046;4.800;2023-07-22T02:55:14;28.67;;;12.38;;
69789;SDS011;57064;52.046;4.800;2023-07-22T02:57:43;27.00;;;10.98;;
69789;SDS011;57064;52.046;4.800;2023-07-22T03:00:14;22.80;;;10.63;;
69789;SDS011;57064;52.046;4.800;2023-07-22T03:02:51;31.40;;;11.90;;
69789;SDS011;57064;52.046;4.800;2023-07-22T03:05:18;25.77;;;10.82;;
69789;SDS011;57064;52.046;4.800;2023-07-22T03:07:46;29.25;;;11.93;;
69789;SDS011;57064;52.046;4.800;2023-07-22T03:10:12;24.85;;;11.23;;
69789;SDS011;57064;52.046;4.800;2023-07-22T03:12:38;21.58;;;10.57;;
69789;SDS011;57064;52.046;4.800;2023-07-22T03:15:04;24.45;;;10.32;;
69789;SDS011;57064;52.046;4.800;2023-07-22T03:17:33;19.98;;;8.80;;
69789;SDS011;57064;52.046;4.800;2023-07-22T03:20:03;21.58;;;9.10;;
69789;SDS011;57064;52.046;4.800;2023-07-22T03:22:40;25.17;;;9.18;;
69789;SDS011;57064;52.046;4.800;2023-07-22T03:25:09;22.85;;;9.38;;
69789;SDS011;57064;52.046;4.800;2023-07-22T03:27:36;21.38;;;8.85;;
69789;SDS011;57064;52.046;4.800;2023-07-22T03:30:04;22.15;;;9.13;;
69789;SDS011;57064;52.046;4.800;2023-07-22T03:32:33;22.27;;;8.98;;
69789;SDS011;57064;52.046;4.800;2023-07-22T03:35:00;19.48;;;8.23;;
69789;SDS011;57064;52.046;4.800;2023-07-22T03:37:27;23.27;;;8.73;;
69789;SDS011;57064;52.046;4.800;2023-07-22T03:39:53;20.45;;;9.05;;
69789;SDS011;57064;52.046;4.800;2023-07-22T03:42:19;18.45;;;9.32;;
69789;SDS011;57064;52.046;4.800;2023-07-22T03:44:45;21.88;;;8.98;;
69789;SDS011;57064;52.046;4.800;2023-07-22T03:47:11;17.27;;;8.05;;
69789;SDS011;57064;52.046;4.800;2023-07-22T03:49:38;18.15;;;9.02;;
69789;SDS011;57064;52.046;4.800;2023-07-22T03:52:04;20.80;;;8.63;;
69789;SDS011;57064;52.046;4.800;2023-07-22T03:54:30;18.52;;;8.27;;
69789;SDS011;57064;52.046;4.800;2023-07-22T03:56:56;17.95;;;8.18;;
69789;SDS011;57064;52.046;4.800;2023-07-22T03:59:22;18.55;;;7.95;;
69789;SDS011;57064;52.046;4.800;2023-07-22T04:01:48;17.15;;;7.93;;
69789;SDS011;57064;52.046;4.800;2023-07-22T04:04:15;17.83;;;7.80;;
69789;SDS011;57064;52.046;4.800;2023-07-22T04:06:41;20.67;;;8.45;;
69789;SDS011;57064;52.046;4.800;2023-07-22T04:09:07;19.30;;;8.07;;
69789;SDS011;57064;52.046;4.800;2023-07-22T04:11:33;17.83;;;7.55;;
69789;SDS011;57064;52.046;4.800;2023-07-22T04:14:04;17.40;;;7.63;;
69789;SDS011;57064;52.046;4.800;2023-07-22T04:16:30;17.60;;;7.85;;
69789;SDS011;57064;52.046;4.800;2023-07-22T04:18:56;17.75;;;7.95;;
69789;SDS011;57064;52.046;4.800;2023-07-22T04:21:22;21.75;;;8.38;;
69789;SDS011;57064;52.046;4.800;2023-07-22T04:23:48;19.92;;;8.32;;
69789;SDS011;57064;52.046;4.800;2023-07-22T04:26:14;22.98;;;10.20;;
69789;SDS011;57064;52.046;4.800;2023-07-22T04:28:40;19.05;;;7.93;;
69789;SDS011;57064;52.046;4.800;2023-07-22T04:31:06;30.90;;;10.38;;
69789;SDS011;57064;52.046;4.800;2023-07-22T04:33:34;23.85;;;9.93;;
69789;SDS011;57064;52.046;4.800;2023-07-22T04:36:00;25.90;;;9.60;;
69789;SDS011;57064;52.046;4.800;2023-07-22T04:38:26;27.15;;;10.77;;
69789;SDS011;57064;52.046;4.800;2023-07-22T04:40:53;32.17;;;12.57;;
69789;SDS011;57064;52.046;4.800;2023-07-22T04:43:19;32.30;;;12.48;;
69789;SDS011;57064;52.046;4.800;2023-07-22T04:45:45;33.53;;;12.73;;
69789;SDS011;57064;52.046;4.800;2023-07-22T04:48:15;31.60;;;14.48;;
69789;SDS011;57064;52.046;4.800;2023-07-22T04:50:42;35.45;;;12.77;;
69789;SDS011;57064;52.046;4.800;2023-07-22T04:53:10;41.15;;;13.88;;
69789;SDS011;57064;52.046;4.800;2023-07-22T04:55:39;37.85;;;14.23;;
69789;SDS011;57064;52.046;4.800;2023-07-22T04:58:06;39.60;;;14.93;;
69789;SDS011;57064;52.046;4.800;2023-07-22T05:00:33;47.35;;;15.65;;
69789;SDS011;57064;52.046;4.800;2023-07-22T05:02:59;38.85;;;16.17;;
69789;SDS011;57064;52.046;4.800;2023-07-22T05:05:25;40.35;;;15.77;;
69789;SDS011;57064;52.046;4.800;2023-07-22T05:07:52;44.05;;;17.98;;
69789;SDS011;57064;52.046;4.800;2023-07-22T05:10:18;51.55;;;18.98;;
69789;SDS011;57064;52.046;4.800;2023-07-22T05:12:44;58.60;;;19.77;;
69789;SDS011;57064;52.046;4.800;2023-07-22T05:15:11;47.03;;;17.48;;
69789;SDS011;57064;52.046;4.800;2023-07-22T05:17:38;52.72;;;20.60;;
69789;SDS011;57064;52.046;4.800;2023-07-22T05:20:05;49.30;;;18.40;;
69789;SDS011;57064;52.046;4.800;2023-07-22T05:22:34;60.08;;;19.80;;
69789;SDS011;57064;52.046;4.800;2023-07-22T05:25:01;53.65;;;18.52;;
69789;SDS011;57064;52.046;4.800;2023-07-22T05:27:27;53.75;;;19.75;;
69789;SDS011;57064;52.046;4.800;2023-07-22T05:29:53;45.00;;;18.13;;
69789;SDS011;57064;52.046;4.800;2023-07-22T05:32:20;53.58;;;18.55;;
69789;SDS011;57064;52.046;4.800;2023-07-22T05:34:46;49.85;;;18.58;;
69789;SDS011;57064;52.046;4.800;2023-07-22T05:37:12;50.08;;;18.33;;
69789;SDS011;57064;52.046;4.800;2023-07-22T05:39:38;59.17;;;19.23;;
69789;SDS011;57064;52.046;4.800;2023-07-22T05:42:04;46.35;;;19.75;;
69789;SDS011;57064;52.046;4.800;2023-07-22T05:44:30;45.70;;;16.77;;
69789;SDS011;57064;52.046;4.800;2023-07-22T05:46:57;47.50;;;18.17;;
69789;SDS011;57064;52.046;4.800;2023-07-22T05:49:23;45.05;;;18.60;;
69789;SDS011;57064;52.046;4.800;2023-07-22T05:51:49;43.42;;;17.40;;
69789;SDS011;57064;52.046;4.800;2023-07-22T05:54:15;39.55;;;16.45;;
69789;SDS011;57064;52.046;4.800;2023-07-22T05:56:41;38.22;;;17.02;;
69789;SDS011;57064;52.046;4.800;2023-07-22T05:59:07;40.42;;;16.90;;
69789;SDS011;57064;52.046;4.800;2023-07-22T06:01:34;38.42;;;16.92;;
69789;SDS011;57064;52.046;4.800;2023-07-22T06:04:00;35.75;;;16.30;;
69789;SDS011;57064;52.046;4.800;2023-07-22T06:06:27;37.45;;;16.10;;
69789;SDS011;57064;52.046;4.800;2023-07-22T06:08:53;35.95;;;16.48;;
69789;SDS011;57064;52.046;4.800;2023-07-22T06:11:19;39.15;;;14.90;;
69789;SDS011;57064;52.046;4.800;2023-07-22T06:13:46;34.30;;;14.93;;
69789;SDS011;57064;52.046;4.800;2023-07-22T06:16:12;33.72;;;15.25;;
69789;SDS011;57064;52.046;4.800;2023-07-22T06:18:38;34.55;;;14.60;;
69789;SDS011;57064;52.046;4.800;2023-07-22T06:21:04;30.60;;;14.00;;
69789;SDS011;57064;52.046;4.800;2023-07-22T06:23:31;32.58;;;14.15;;
69789;SDS011;57064;52.046;4.800;2023-07-22T06:25:57;33.65;;;15.85;;
69789;SDS011;57064;52.046;4.800;2023-07-22T06:28:23;31.27;;;14.10;;
69789;SDS011;57064;52.046;4.800;2023-07-22T06:30:49;28.98;;;13.98;;
69789;SDS011;57064;52.046;4.800;2023-07-22T06:33:15;29.35;;;13.20;;
69789;SDS011;57064;52.046;4.800;2023-07-22T06:35:41;27.35;;;13.32;;
69789;SDS011;57064;52.046;4.800;2023-07-22T06:38:07;32.78;;;14.57;;
69789;SDS011;57064;52.046;4.800;2023-07-22T06:40:33;36.72;;;13.90;;
69789;SDS011;57064;52.046;4.800;2023-07-22T06:42:59;24.98;;;12.40;;
69789;SDS011;57064;52.046;4.800;2023-07-22T06:45:25;29.27;;;13.38;;
69789;SDS011;57064;52.046;4.800;2023-07-22T06:47:51;29.55;;;14.65;;
69789;SDS011;57064;52.046;4.800;2023-07-22T06:50:17;30.58;;;13.80;;
69789;SDS011;57064;52.046;4.800;2023-07-22T06:52:43;26.27;;;13.25;;
69789;SDS011;57064;52.046;4.800;2023-07-22T06:55:09;27.10;;;12.90;;
69789;SDS011;57064;52.046;4.800;2023-07-22T06:57:36;26.38;;;13.05;;
69789;SDS011;57064;52.046;4.800;2023-07-22T07:00:03;27.85;;;12.50;;
69789;SDS011;57064;52.046;4.800;2023-07-22T07:02:30;28.60;;;12.95;;
69789;SDS011;57064;52.046;4.800;2023-07-22T07:04:56;30.77;;;13.57;;
69789;SDS011;57064;52.046;4.800;2023-07-22T07:07:22;26.38;;;12.98;;
69789;SDS011;57064;52.046;4.800;2023-07-22T07:09:48;31.95;;;13.60;;
69789;SDS011;57064;52.046;4.800;2023-07-22T07:12:15;28.80;;;13.15;;
69789;SDS011;57064;52.046;4.800;2023-07-22T07:14:41;28.52;;;12.77;;
69789;SDS011;57064;52.046;4.800;2023-07-22T07:17:08;26.92;;;12.25;;
69789;SDS011;57064;52.046;4.800;2023-07-22T07:19:34;28.08;;;13.38;;
69789;SDS011;57064;52.046;4.800;2023-07-22T07:22:00;22.55;;;12.13;;
69789;SDS011;57064;52.046;4.800;2023-07-22T07:24:26;20.67;;;12.05;;
69789;SDS011;57064;52.046;4.800;2023-07-22T07:26:52;24.02;;;12.65;;
69789;SDS011;57064;52.046;4.800;2023-07-22T07:29:18;25.38;;;12.38;;
69789;SDS011;57064;52.046;4.800;2023-07-22T07:31:45;24.80;;;12.65;;
69789;SDS011;57064;52.046;4.800;2023-07-22T07:34:11;25.30;;;13.02;;
69789;SDS011;57064;52.046;4.800;2023-07-22T07:36:37;26.00;;;13.00;;
69789;SDS011;57064;52.046;4.800;2023-07-22T07:39:03;27.95;;;13.73;;
69789;SDS011;57064;52.046;4.800;2023-07-22T07:41:29;26.48;;;13.60;;
69789;SDS011;57064;52.046;4.800;2023-07-22T07:43:55;24.95;;;13.65;;
69789;SDS011;57064;52.046;4.800;2023-07-22T07:46:22;24.50;;;13.02;;
69789;SDS011;57064;52.046;4.800;2023-07-22T07:48:50;23.55;;;12.82;;
69789;SDS011;57064;52.046;4.800;2023-07-22T07:51:20;24.00;;;13.65;;
69789;SDS011;57064;52.046;4.800;2023-07-22T07:53:48;24.90;;;13.43;;
69789;SDS011;57064;52.046;4.800;2023-07-22T07:56:14;24.17;;;13.50;;
69789;SDS011;57064;52.046;4.800;2023-07-22T07:58:42;29.90;;;14.65;;
69789;SDS011;57064;52.046;4.800;2023-07-22T08:01:08;23.77;;;13.40;;
69789;SDS011;57064;52.046;4.800;2023-07-22T08:03:35;25.70;;;13.30;;
69789;SDS011;57064;52.046;4.800;2023-07-22T08:06:03;23.13;;;12.50;;
69789;SDS011;57064;52.046;4.800;2023-07-22T08:08:29;26.40;;;13.82;;
69789;SDS011;57064;52.046;4.800;2023-07-22T08:10:59;22.55;;;11.93;;
69789;SDS011;57064;52.046;4.800;2023-07-22T08:13:29;24.50;;;12.60;;
69789;SDS011;57064;52.046;4.800;2023-07-22T08:16:04;22.15;;;11.93;;
69789;SDS011;57064;52.046;4.800;2023-07-22T08:18:33;24.73;;;11.88;;
69789;SDS011;57064;52.046;4.800;2023-07-22T08:21:01;18.77;;;10.95;;
69789;SDS011;57064;52.046;4.800;2023-07-22T08:23:28;17.85;;;10.55;;
69789;SDS011;57064;52.046;4.800;2023-07-22T08:25:55;17.20;;;9.60;;
69789;SDS011;57064;52.046;4.800;2023-07-22T08:28:22;16.33;;;9.52;;
69789;SDS011;57064;52.046;4.800;2023-07-22T08:30:48;15.32;;;9.13;;
69789;SDS011;57064;52.046;4.800;2023-07-22T08:33:14;16.48;;;9.27;;
69789;SDS011;57064;52.046;4.800;2023-07-22T08:35:43;20.27;;;9.02;;
69789;SDS011;57064;52.046;4.800;2023-07-22T08:38:10;16.40;;;8.55;;
69789;SDS011;57064;52.046;4.800;2023-07-22T08:40:36;16.00;;;9.18;;
69789;SDS011;57064;52.046;4.800;2023-07-22T08:43:04;20.58;;;10.80;;
69789;SDS011;57064;52.046;4.800;2023-07-22T08:45:33;16.95;;;8.68;;
69789;SDS011;57064;52.046;4.800;2023-07-22T08:48:10;12.68;;;8.07;;
69789;SDS011;57064;52.046;4.800;2023-07-22T08:53:21;14.60;;;8.18;;
69789;SDS011;57064;52.046;4.800;2023-07-22T08:55:50;14.40;;;7.10;;
69789;SDS011;57064;52.046;4.800;2023-07-22T08:58:16;10.63;;;6.68;;
69789;SDS011;57064;52.046;4.800;2023-07-22T09:00:43;14.98;;;6.30;;
69789;SDS011;57064;52.046;4.800;2023-07-22T09:03:11;13.30;;;6.50;;
69789;SDS011;57064;52.046;4.800;2023-07-22T09:05:37;12.48;;;6.00;;
69789;SDS011;57064;52.046;4.800;2023-07-22T09:08:06;9.02;;;5.43;;
69789;SDS011;57064;52.046;4.800;2023-07-22T09:10:33;9.63;;;5.80;;
69789;SDS011;57064;52.046;4.800;2023-07-22T09:12:59;10.20;;;4.93;;
69789;SDS011;57064;52.046;4.800;2023-07-22T09:15:26;7.80;;;4.90;;
69789;SDS011;57064;52.046;4.800;2023-07-22T09:17:52;9.23;;;4.50;;
69789;SDS011;57064;52.046;4.800;2023-07-22T09:20:19;7.75;;;4.15;;
69789;SDS011;57064;52.046;4.800;2023-07-22T09:22:46;10.77;;;4.50;;
69789;SDS011;57064;52.046;4.800;2023-07-22T09:25:23;10.05;;;4.78;;
69789;SDS011;57064;52.046;4.800;2023-07-22T09:27:51;10.50;;;4.82;;
69789;SDS011;57064;52.046;4.800;2023-07-22T09:32:45;8.75;;;4.53;;
69789;SDS011;57064;52.046;4.800;2023-07-22T09:35:12;6.72;;;4.05;;
69789;SDS011;57064;52.046;4.800;2023-07-22T09:37:38;10.73;;;3.85;;
69789;SDS011;57064;52.046;4.800;2023-07-22T09:40:13;7.30;;;3.72;;
69789;SDS011;57064;52.046;4.800;2023-07-22T09:42:42;9.23;;;4.20;;
69789;SDS011;57064;52.046;4.800;2023-07-22T09:45:10;8.02;;;3.80;;
69789;SDS011;57064;52.046;4.800;2023-07-22T09:47:42;7.80;;;3.40;;
69789;SDS011;57064;52.046;4.800;2023-07-22T09:50:10;8.85;;;3.00;;
69789;SDS011;57064;52.046;4.800;2023-07-22T09:52:42;7.05;;;2.95;;
69789;SDS011;57064;52.046;4.800;2023-07-22T09:55:15;6.30;;;3.45;;
69789;SDS011;57064;52.046;4.800;2023-07-22T09:57:44;9.50;;;3.10;;
69789;SDS011;57064;52.046;4.800;2023-07-22T10:00:12;8.32;;;3.95;;
69789;SDS011;57064;52.046;4.800;2023-07-22T10:02:41;6.18;;;3.30;;
69789;SDS011;57064;52.046;4.800;2023-07-22T10:05:12;5.88;;;3.42;;
69789;SDS011;57064;52.046;4.800;2023-07-22T10:07:51;6.90;;;4.50;;
69789;SDS011;57064;52.046;4.800;2023-07-22T10:10:23;8.15;;;4.10;;
69789;SDS011;57064;52.046;4.800;2023-07-22T10:12:55;7.45;;;4.13;;
69789;SDS011;57064;52.046;4.800;2023-07-22T10:15:23;8.52;;;4.30;;
69789;SDS011;57064;52.046;4.800;2023-07-22T10:17:52;8.20;;;3.88;;
69789;SDS011;57064;52.046;4.800;2023-07-22T10:20:20;6.55;;;3.20;;
69789;SDS011;57064;52.046;4.800;2023-07-22T10:22:46;6.10;;;3.13;;
69789;SDS011;57064;52.046;4.800;2023-07-22T10:25:16;7.88;;;3.80;;
69789;SDS011;57064;52.046;4.800;2023-07-22T10:27:44;9.10;;;3.40;;
69789;SDS011;57064;52.046;4.800;2023-07-22T10:30:12;6.28;;;3.40;;
69789;SDS011;57064;52.046;4.800;2023-07-22T10:32:40;7.15;;;3.42;;
69789;SDS011;57064;52.046;4.800;2023-07-22T10:35:08;12.40;;;3.40;;
69789;SDS011;57064;52.046;4.800;2023-07-22T10:37:35;5.85;;;3.53;;
69789;SDS011;57064;52.046;4.800;2023-07-22T10:40:26;6.97;;;3.33;;
69789;SDS011;57064;52.046;4.800;2023-07-22T10:43:03;6.93;;;4.15;;
69789;SDS011;57064;52.046;4.800;2023-07-22T10:45:32;5.82;;;3.50;;
69789;SDS011;57064;52.046;4.800;2023-07-22T10:50:40;5.05;;;3.80;;
69789;SDS011;57064;52.046;4.800;2023-07-22T10:53:20;7.13;;;3.50;;
69789;SDS011;57064;52.046;4.800;2023-07-22T10:58:54;8.32;;;4.35;;
69789;SDS011;57064;52.046;4.800;2023-07-22T11:06:31;8.82;;;3.55;;
69789;SDS011;57064;52.046;4.800;2023-07-22T11:08:57;5.38;;;2.50;;
69789;SDS011;57064;52.046;4.800;2023-07-22T11:11:40;7.20;;;2.85;;
69789;SDS011;57064;52.046;4.800;2023-07-22T11:14:16;4.50;;;2.38;;
69789;SDS011;57064;52.046;4.800;2023-07-22T11:16:44;7.90;;;2.97;;
69789;SDS011;57064;52.046;4.800;2023-07-22T11:19:15;4.90;;;2.53;;
69789;SDS011;57064;52.046;4.800;2023-07-22T11:21:42;6.38;;;2.65;;
69789;SDS011;57064;52.046;4.800;2023-07-22T11:24:09;6.68;;;2.53;;
69789;SDS011;57064;52.046;4.800;2023-07-22T11:26:36;4.38;;;2.60;;
69789;SDS011;57064;52.046;4.800;2023-07-22T11:29:03;4.55;;;2.72;;
69789;SDS011;57064;52.046;4.800;2023-07-22T11:31:32;5.07;;;2.10;;
69789;SDS011;57064;52.046;4.800;2023-07-22T11:34:01;8.85;;;3.08;;
69789;SDS011;57064;52.046;4.800;2023-07-22T11:36:31;3.17;;;1.98;;
69789;SDS011;57064;52.046;4.800;2023-07-22T11:39:03;5.63;;;2.50;;
69789;SDS011;57064;52.046;4.800;2023-07-22T11:41:34;6.30;;;2.10;;
69789;SDS011;57064;52.046;4.800;2023-07-22T11:44:01;5.30;;;2.30;;
69789;SDS011;57064;52.046;4.800;2023-07-22T11:46:33;7.22;;;2.05;;
69789;SDS011;57064;52.046;4.800;2023-07-22T11:49:00;5.57;;;2.10;;
69789;SDS011;57064;52.046;4.800;2023-07-22T11:51:27;4.07;;;1.65;;
69789;SDS011;57064;52.046;4.800;2023-07-22T11:53:54;9.15;;;1.70;;
69789;SDS011;57064;52.046;4.800;2023-07-22T11:56:27;4.63;;;1.85;;
69789;SDS011;57064;52.046;4.800;2023-07-22T11:58:56;5.03;;;1.88;;
69789;SDS011;57064;52.046;4.800;2023-07-22T12:01:22;3.75;;;2.10;;
69789;SDS011;57064;52.046;4.800;2023-07-22T12:03:49;4.50;;;1.70;;
69789;SDS011;57064;52.046;4.800;2023-07-22T12:06:20;6.28;;;2.35;;
69789;SDS011;57064;52.046;4.800;2023-07-22T12:08:51;5.13;;;2.00;;
69789;SDS011;57064;52.046;4.800;2023-07-22T12:11:22;5.53;;;1.92;;
69789;SDS011;57064;52.046;4.800;2023-07-22T12:14:08;2.97;;;1.48;;
69789;SDS011;57064;52.046;4.800;2023-07-22T12:16:36;5.32;;;1.83;;
69789;SDS011;57064;52.046;4.800;2023-07-22T12:19:03;2.67;;;1.67;;
69789;SDS011;57064;52.046;4.800;2023-07-22T12:21:30;8.80;;;1.63;;
69789;SDS011;57064;52.046;4.800;2023-07-22T12:23:57;3.97;;;1.60;;
69789;SDS011;57064;52.046;4.800;2023-07-22T12:26:23;3.88;;;1.73;;
69789;SDS011;57064;52.046;4.800;2023-07-22T12:28:50;4.40;;;1.50;;
69789;SDS011;57064;52.046;4.800;2023-07-22T12:31:16;4.38;;;1.60;;
69789;SDS011;57064;52.046;4.800;2023-07-22T12:33:42;4.03;;;1.60;;
69789;SDS011;57064;52.046;4.800;2023-07-22T12:36:08;4.28;;;1.83;;
69789;SDS011;57064;52.046;4.800;2023-07-22T12:38:34;2.47;;;1.20;;
69789;SDS011;57064;52.046;4.800;2023-07-22T12:41:01;3.97;;;1.38;;
69789;SDS011;57064;52.046;4.800;2023-07-22T12:43:27;2.00;;;0.90;;
69789;SDS011;57064;52.046;4.800;2023-07-22T12:45:54;2.17;;;1.10;;
69789;SDS011;57064;52.046;4.800;2023-07-22T12:48:20;5.55;;;1.20;;
69789;SDS011;57064;52.046;4.800;2023-07-22T12:50:46;3.60;;;1.33;;
69789;SDS011;57064;52.046;4.800;2023-07-22T12:53:13;5.13;;;1.55;;
69789;SDS011;57064;52.046;4.800;2023-07-22T12:55:39;5.78;;;1.80;;
69789;SDS011;57064;52.046;4.800;2023-07-22T12:58:05;5.20;;;1.48;;
69789;SDS011;57064;52.046;4.800;2023-07-22T13:00:31;5.50;;;1.50;;
69789;SDS011;57064;52.046;4.800;2023-07-22T13:02:57;4.57;;;1.55;;
69789;SDS011;57064;52.046;4.800;2023-07-22T13:05:23;7.13;;;1.30;;
69789;SDS011;57064;52.046;4.800;2023-07-22T13:07:50;2.95;;;1.60;;
69789;SDS011;57064;52.046;4.800;2023-07-22T13:10:16;3.25;;;1.58;;
69789;SDS011;57064;52.046;4.800;2023-07-22T13:12:45;4.00;;;2.00;;
69789;SDS011;57064;52.046;4.800;2023-07-22T13:15:11;4.63;;;1.38;;
69789;SDS011;57064;52.046;4.800;2023-07-22T13:17:37;3.08;;;1.55;;
69789;SDS011;57064;52.046;4.800;2023-07-22T13:20:04;3.53;;;1.85;;
69789;SDS011;57064;52.046;4.800;2023-07-22T13:22:34;3.47;;;2.13;;
69789;SDS011;57064;52.046;4.800;2023-07-22T13:25:01;4.28;;;1.80;;
69789;SDS011;57064;52.046;4.800;2023-07-22T13:27:28;3.92;;;1.55;;
69789;SDS011;57064;52.046;4.800;2023-07-22T13:29:54;3.67;;;1.67;;
69789;SDS011;57064;52.046;4.800;2023-07-22T13:32:20;4.93;;;2.25;;
69789;SDS011;57064;52.046;4.800;2023-07-22T13:34:46;4.38;;;1.60;;
69789;SDS011;57064;52.046;4.800;2023-07-22T13:37:12;3.75;;;1.40;;
69789;SDS011;57064;52.046;4.800;2023-07-22T13:39:38;5.60;;;1.58;;
69789;SDS011;57064;52.046;4.800;2023-07-22T13:42:05;2.50;;;1.52;;
69789;SDS011;57064;52.046;4.800;2023-07-22T13:44:31;3.70;;;1.55;;
69789;SDS011;57064;52.046;4.800;2023-07-22T13:46:57;4.90;;;1.63;;
69789;SDS011;57064;52.046;4.800;2023-07-22T13:49:23;3.75;;;1.55;;
69789;SDS011;57064;52.046;4.800;2023-07-22T13:51:49;4.90;;;1.65;;
69789;SDS011;57064;52.046;4.800;2023-07-22T13:54:15;3.28;;;1.45;;
69789;SDS011;57064;52.046;4.800;2023-07-22T13:56:41;3.95;;;1.55;;
69789;SDS011;57064;52.046;4.800;2023-07-22T13:59:08;5.13;;;2.00;;
69789;SDS011;57064;52.046;4.800;2023-07-22T14:01:34;3.63;;;1.40;;
69789;SDS011;57064;52.046;4.800;2023-07-22T14:04:01;4.72;;;1.70;;
69789;SDS011;57064;52.046;4.800;2023-07-22T14:06:27;3.30;;;1.63;;
69789;SDS011;57064;52.046;4.800;2023-07-22T14:08:53;6.63;;;1.63;;
69789;SDS011;57064;52.046;4.800;2023-07-22T14:11:20;3.30;;;1.40;;
69789;SDS011;57064;52.046;4.800;2023-07-22T14:13:46;5.40;;;1.60;;
69789;SDS011;57064;52.046;4.800;2023-07-22T14:16:12;4.18;;;1.40;;
69789;SDS011;57064;52.046;4.800;2023-07-22T14:18:38;2.63;;;1.30;;
69789;SDS011;57064;52.046;4.800;2023-07-22T14:21:05;4.07;;;1.55;;
69789;SDS011;57064;52.046;4.800;2023-07-22T14:23:31;4.60;;;1.40;;
69789;SDS011;57064;52.046;4.800;2023-07-22T14:25:57;3.47;;;1.30;;
69789;SDS011;57064;52.046;4.800;2023-07-22T14:28:23;3.67;;;1.50;;
69789;SDS011;57064;52.046;4.800;2023-07-22T14:30:49;3.22;;;1.58;;
69789;SDS011;57064;52.046;4.800;2023-07-22T14:33:15;3.65;;;1.30;;
69789;SDS011;57064;52.046;4.800;2023-07-22T14:35:41;2.72;;;1.23;;
69789;SDS011;57064;52.046;4.800;2023-07-22T14:38:07;4.63;;;1.60;;
69789;SDS011;57064;52.046;4.800;2023-07-22T14:40:33;5.50;;;1.75;;
69789;SDS011;57064;52.046;4.800;2023-07-22T14:42:59;2.40;;;1.30;;
69789;SDS011;57064;52.046;4.800;2023-07-22T14:45:25;3.50;;;1.50;;
69789;SDS011;57064;52.046;4.800;2023-07-22T14:47:51;4.47;;;2.00;;
69789;SDS011;57064;52.046;4.800;2023-07-22T14:50:17;5.15;;;1.63;;
69789;SDS011;57064;52.046;4.800;2023-07-22T14:52:44;6.18;;;1.88;;